Time;durP1;ratioP1;P1;durP2;ratioP2;P2;SDS_P1;SDS_P2;PMS_P1;PMS_P2;Temp;Humidity;BMP_temperature;BMP_pressure;BME280_temperature;BME280_humidity;BME280_pressure;Samples;Min_cycle;Max_cycle;Signal;HPM_P1;HPM_P2
2022/08/18 00:02:14;;;;;;;36.42;32.50;;;22.20;97.40;;;;;;5128657;27;20617;-45
2022/08/18 00:04:42;;;;;;;36.75;32.05;;;22.20;97.50;;;;;;5121757;27;20225;-44
2022/08/18 00:07:26;;;;;;;35.50;30.95;;;22.10;97.50;;;;;;5117786;27;20189;-45
2022/08/18 00:09:57;;;;;;;37.88;32.53;;;22.10;97.60;;;;;;5129755;27;20254;-45
2022/08/18 00:12:37;;;;;;;38.30;33.75;;;22.10;97.60;;;;;;5110794;27;20659;-45
2022/08/18 00:15:10;;;;;;;40.95;35.03;;;22.10;97.70;;;;;;5129955;27;20243;-45
2022/08/18 00:17:38;;;;;;;41.30;35.03;;;22.10;97.60;;;;;;5129703;27;20189;-44
2022/08/18 00:20:09;;;;;;;42.45;36.60;;;22.00;97.60;;;;;;5128624;27;20213;-44
2022/08/18 00:22:39;;;;;;;43.67;36.38;;;22.00;97.60;;;;;;5113529;27;20222;-45
2022/08/18 00:25:13;;;;;;;42.70;36.22;;;22.00;97.70;;;;;;5109473;28;20206;-44
2022/08/18 00:27:43;;;;;;;41.35;35.42;;;22.00;97.70;;;;;;5127304;27;20256;-38
2022/08/18 00:30:18;;;;;;;45.40;37.80;;;22.00;97.70;;;;;;5150387;27;20312;-38
2022/08/18 00:32:54;;;;;;;44.22;38.20;;;21.90;97.80;;;;;;5131525;27;20216;-38
2022/08/18 00:35:33;;;;;;;45.13;36.95;;;21.90;97.90;;;;;;5123271;27;20293;-38
2022/08/18 00:38:05;;;;;;;47.33;38.90;;;21.90;97.90;;;;;;5111310;27;20261;-38
2022/08/18 00:40:43;;;;;;;46.70;37.85;;;21.90;97.80;;;;;;5129599;27;20205;-38
2022/08/18 00:43:23;;;;;;;47.05;39.25;;;21.90;98.00;;;;;;5128809;27;20208;-38
2022/08/18 00:45:53;;;;;;;47.08;38.00;;;21.80;97.90;;;;;;5111183;27;20582;-38
2022/08/18 00:48:22;;;;;;;52.20;41.45;;;21.80;97.90;;;;;;5129299;27;20296;-38
2022/08/18 00:50:58;;;;;;;53.95;40.65;;;21.80;97.90;;;;;;5110848;27;20213;-38
2022/08/18 00:53:34;;;;;;;51.97;41.00;;;21.80;98.00;;;;;;5109971;28;20228;-38
2022/08/18 00:56:13;;;;;;;49.10;38.85;;;21.90;97.80;;;;;;5117319;27;20210;-38
2022/08/18 00:58:51;;;;;;;48.40;39.45;;;21.90;97.90;;;;;;5114480;27;20270;-38
2022/08/18 01:01:22;;;;;;;47.97;38.67;;;21.90;98.00;;;;;;5108510;27;20688;-38
2022/08/18 01:04:11;;;;;;;50.70;40.28;;;21.90;98.10;;;;;;5111440;27;20198;-38
2022/08/18 01:06:45;;;;;;;49.55;40.00;;;21.90;98.20;;;;;;5108643;28;20309;-38
2022/08/18 01:09:16;;;;;;;49.20;38.50;;;21.90;98.20;;;;;;5118324;28;20299;-38
2022/08/18 01:11:44;;;;;;;49.03;38.83;;;22.00;98.10;;;;;;5119546;28;20571;-39
2022/08/18 01:14:14;;;;;;;46.50;37.95;;;22.00;98.20;;;;;;5110008;28;20202;-38
2022/08/18 01:22:27;;;;;;;50.85;40.40;;;22.00;98.30;;;;;;5109611;28;20213;-38
2022/08/18 01:27:44;;;;;;;55.53;42.58;;;22.00;98.30;;;;;;5129855;27;20568;-37
2022/08/18 01:30:16;;;;;;;55.80;42.78;;;22.10;98.40;;;;;;5106204;28;20212;-37
2022/08/18 01:32:51;;;;;;;61.80;46.38;;;22.10;98.40;;;;;;5128786;28;20205;-38
2022/08/18 01:35:21;;;;;;;63.90;47.88;;;22.10;98.50;;;;;;5107284;28;20288;-37
2022/08/18 01:37:51;;;;;;;61.95;44.95;;;22.10;98.50;;;;;;5107098;28;20224;-39
2022/08/18 01:40:22;;;;;;;56.17;43.10;;;22.10;98.50;;;;;;5108131;28;20210;-39
2022/08/18 01:43:14;;;;;;;55.40;43.72;;;22.10;98.60;;;;;;5108547;28;20745;-39
2022/08/18 01:45:46;;;;;;;55.35;43.92;;;22.10;98.60;;;;;;5108210;28;20296;-39
2022/08/18 01:48:16;;;;;;;57.30;46.13;;;22.20;98.60;;;;;;5090308;28;20297;-39
2022/08/18 01:50:44;;;;;;;62.88;45.95;;;22.20;98.70;;;;;;5108342;28;20218;-39
2022/08/18 01:53:17;;;;;;;58.42;45.50;;;22.20;98.80;;;;;;5089989;28;20202;-39
2022/08/18 01:55:47;;;;;;;58.65;43.70;;;22.20;98.80;;;;;;5107686;28;20281;-39
2022/08/18 01:58:17;;;;;;;57.75;45.42;;;22.20;98.80;;;;;;5107119;28;20238;-39
2022/08/18 02:00:46;;;;;;;60.15;45.83;;;22.20;98.80;;;;;;5108672;28;20206;-39
2022/08/18 02:03:18;;;;;;;58.70;46.58;;;22.20;98.80;;;;;;5120393;28;20215;-39
2022/08/18 02:05:48;;;;;;;49.05;40.63;;;22.20;98.80;;;;;;5110779;28;20596;-39
2022/08/18 02:08:15;;;;;;;43.10;35.30;;;22.20;98.90;;;;;;5111956;28;20630;-39
2022/08/18 02:10:43;;;;;;;39.38;32.65;;;22.20;98.90;;;;;;5111252;28;20797;-39
2022/08/18 02:13:14;;;;;;;39.80;32.50;;;22.20;98.90;;;;;;5111557;28;20218;-40
2022/08/18 02:15:42;;;;;;;40.05;33.33;;;22.20;98.90;;;;;;5113054;27;20254;-39
2022/08/18 02:18:19;;;;;;;42.50;35.08;;;22.20;98.80;;;;;;5125929;27;20198;-40
2022/08/18 02:21:14;;;;;;;45.95;37.17;;;22.30;99.00;;;;;;5120667;27;20563;-40
2022/08/18 02:23:47;;;;;;;50.30;39.88;;;22.30;99.10;;;;;;5111737;28;20263;-40
2022/08/18 02:26:20;;;;;;;53.28;40.88;;;22.30;99.10;;;;;;5093563;28;20213;-39
2022/08/18 02:28:48;;;;;;;57.10;44.42;;;22.30;99.00;;;;;;5149045;27;20229;-39
2022/08/18 02:31:20;;;;;;;54.00;41.55;;;22.30;99.10;;;;;;5152457;27;20221;-39
2022/08/18 02:33:47;;;;;;;57.92;44.13;;;22.30;99.10;;;;;;5152625;27;20685;-39
2022/08/18 02:36:20;;;;;;;55.88;43.45;;;22.30;99.10;;;;;;5131635;27;20219;-44
2022/08/18 02:38:51;;;;;;;55.85;43.17;;;22.30;99.40;;;;;;5116629;27;20202;-39
2022/08/18 02:41:27;;;;;;;56.33;43.45;;;22.30;99.20;;;;;;5110624;28;20752;-39
2022/08/18 02:43:57;;;;;;;51.58;40.95;;;22.30;99.20;;;;;;5093224;28;20198;-39
2022/08/18 02:46:25;;;;;;;55.13;42.85;;;22.30;99.20;;;;;;5110846;28;20676;-38
2022/08/18 02:48:59;;;;;;;56.22;42.67;;;22.20;99.20;;;;;;5093612;28;20689;-40
2022/08/18 02:51:26;;;;;;;54.30;42.22;;;22.30;99.20;;;;;;5111409;27;20567;-39
2022/08/18 02:53:53;;;;;;;55.58;43.80;;;22.30;99.30;;;;;;5112446;27;20543;-39
2022/08/18 02:59:15;;;;;;;56.45;41.95;;;22.30;99.30;;;;;;5131202;27;20240;-44
2022/08/18 03:01:48;;;;;;;53.30;41.95;;;22.30;99.30;;;;;;5131651;27;20246;-39
2022/08/18 03:04:26;;;;;;;43.40;34.53;;;22.30;99.40;;;;;;5129884;27;20579;-44
2022/08/18 03:06:59;;;;;;;45.20;35.85;;;22.30;99.40;;;;;;5131478;27;20679;-43
2022/08/18 03:09:31;;;;;;;43.50;35.53;;;22.30;99.40;;;;;;5130530;27;20209;-43
2022/08/18 03:11:59;;;;;;;39.50;33.67;;;22.30;99.30;;;;;;5120172;27;20238;-44
2022/08/18 03:14:27;;;;;;;39.67;33.15;;;22.40;99.30;;;;;;5110273;28;20236;-46
2022/08/18 03:16:54;;;;;;;41.78;33.70;;;22.40;99.40;;;;;;5110306;28;20209;-44
2022/08/18 03:19:30;;;;;;;34.63;28.92;;;22.40;99.40;;;;;;5129443;27;20197;-43
2022/08/18 03:22:07;;;;;;;31.15;27.48;;;22.30;99.40;;;;;;5131207;27;20278;-43
2022/08/18 03:24:59;;;;;;;34.67;29.17;;;22.40;99.40;;;;;;5115325;27;20728;-43
2022/08/18 03:27:26;;;;;;;35.25;29.17;;;22.40;99.50;;;;;;5102212;27;20231;-44
2022/08/18 03:29:56;;;;;;;33.40;27.60;;;22.40;99.30;;;;;;5119274;27;20231;-44
2022/08/18 03:32:27;;;;;;;36.75;30.75;;;22.40;99.40;;;;;;5130528;27;20229;-43
2022/08/18 03:34:59;;;;;;;33.28;28.00;;;22.40;99.60;;;;;;5121585;27;20241;-43
2022/08/18 03:37:31;;;;;;;34.08;29.77;;;22.30;99.50;;;;;;5109879;28;20194;-43
2022/08/18 03:40:01;;;;;;;32.28;28.15;;;22.30;99.50;;;;;;5110150;28;20198;-44
2022/08/18 03:42:31;;;;;;;38.15;31.00;;;22.30;99.50;;;;;;5128286;27;20217;-43
2022/08/18 03:45:00;;;;;;;36.13;30.70;;;22.30;99.30;;;;;;5110303;27;20580;-44
2022/08/18 03:47:50;;;;;;;35.28;31.48;;;22.40;99.40;;;;;;5109858;28;20205;-44
2022/08/18 03:50:18;;;;;;;42.47;34.90;;;22.40;99.60;;;;;;5092583;28;20385;-43
2022/08/18 03:52:48;;;;;;;47.08;36.53;;;22.40;99.60;;;;;;5109422;28;20318;-43
2022/08/18 03:55:21;;;;;;;44.78;36.88;;;22.40;99.60;;;;;;5109902;28;20281;-43
2022/08/18 03:57:54;;;;;;;54.40;41.90;;;22.40;99.70;;;;;;5108913;28;20227;-39
2022/08/18 04:00:26;;;;;;;57.05;41.90;;;22.40;99.70;;;;;;5110455;27;20235;-39
2022/08/18 04:02:53;;;;;;;63.40;45.03;;;22.40;99.70;;;;;;5110088;27;20222;-39
2022/08/18 04:05:23;;;;;;;61.70;44.55;;;22.40;99.70;;;;;;5120117;27;20296;-39
2022/08/18 04:07:53;;;;;;;56.80;42.67;;;22.40;99.80;;;;;;5130187;27;20297;-38
2022/08/18 04:10:20;;;;;;;57.63;43.67;;;22.40;99.60;;;;;;5130177;27;20197;-39
2022/08/18 04:12:47;;;;;;;66.82;50.03;;;22.40;99.60;;;;;;5129280;27;20315;-38
2022/08/18 04:15:15;;;;;;;63.28;46.15;;;22.40;99.90;;;;;;5130402;27;20217;-39
2022/08/18 04:17:45;;;;;;;62.15;45.83;;;22.50;99.70;;;;;;5114095;27;20217;-38
2022/08/18 04:20:32;;;;;;;58.05;43.85;;;22.50;99.60;;;;;;5109579;28;20210;-39
2022/08/18 04:23:02;;;;;;;58.55;42.80;;;22.40;99.60;;;;;;5091254;28;20202;-39
2022/08/18 04:25:31;;;;;;;60.25;44.17;;;22.40;99.60;;;;;;5109333;28;20225;-38
2022/08/18 04:28:06;;;;;;;58.88;43.65;;;22.40;99.60;;;;;;5132509;27;20208;-39
2022/08/18 04:30:34;;;;;;;60.60;45.05;;;22.40;99.60;;;;;;5150327;27;20204;-40
2022/08/18 04:33:06;;;;;;;59.30;45.40;;;22.40;99.60;;;;;;5129281;27;20220;-39
2022/08/18 04:35:36;;;;;;;58.20;44.42;;;22.40;99.80;;;;;;5126364;27;20637;-39
2022/08/18 04:38:06;;;;;;;54.97;40.47;;;22.30;99.60;;;;;;5121418;27;20197;-38
2022/08/18 04:40:33;;;;;;;62.53;43.05;;;22.30;99.70;;;;;;5129492;27;20671;-39
2022/08/18 04:43:04;;;;;;;51.03;40.00;;;22.30;99.80;;;;;;5111226;27;20212;-39
2022/08/18 04:45:31;;;;;;;50.67;39.05;;;22.30;99.60;;;;;;5129411;27;20241;-39
2022/08/18 04:48:01;;;;;;;47.15;37.90;;;22.30;99.60;;;;;;5129467;27;20233;-39
2022/08/18 04:50:28;;;;;;;50.45;38.80;;;22.30;99.70;;;;;;5128589;27;20198;-39
2022/08/18 04:55:50;;;;;;;44.33;34.47;;;22.20;99.80;;;;;;5108293;28;20304;-39
2022/08/18 04:58:19;;;;;;;45.58;34.45;;;22.20;99.90;;;;;;5108320;28;20700;-39
2022/08/18 05:01:00;;;;;;;42.00;34.47;;;22.20;99.80;;;;;;5108780;28;20201;-39
2022/08/18 05:03:28;;;;;;;41.00;33.60;;;22.30;99.90;;;;;;5090777;28;20704;-39
2022/08/18 05:06:00;;;;;;;40.13;33.42;;;22.30;99.80;;;;;;5128748;27;20208;-39
2022/08/18 05:08:32;;;;;;;42.28;33.97;;;22.30;99.80;;;;;;5115802;27;20285;-39
2022/08/18 05:11:01;;;;;;;39.10;32.28;;;22.30;99.90;;;;;;5118737;28;20201;-39
2022/08/18 05:13:30;;;;;;;37.55;31.08;;;22.30;99.90;;;;;;5128879;28;20663;-38
2022/08/18 05:16:02;;;;;;;38.17;30.95;;;22.30;99.90;;;;;;5129125;28;20190;-39
2022/08/18 05:18:45;;;;;;;38.38;30.65;;;22.30;99.90;;;;;;5129017;28;20617;-38
2022/08/18 05:21:15;;;;;;;36.85;30.05;;;22.30;99.90;;;;;;5110613;28;20253;-39
2022/08/18 05:23:47;;;;;;;36.30;30.25;;;22.30;99.90;;;;;;5129223;28;20221;-39
2022/08/18 05:26:17;;;;;;;34.90;28.98;;;22.30;99.90;;;;;;5108528;28;20210;-38
2022/08/18 05:28:47;;;;;;;31.65;27.83;;;22.30;99.90;;;;;;5092211;28;20202;-39
2022/08/18 05:31:22;;;;;;;33.92;26.77;;;22.30;99.90;;;;;;5108162;28;20262;-39
2022/08/18 05:33:55;;;;;;;30.33;26.25;;;22.30;99.90;;;;;;5108688;28;20277;-39
2022/08/18 05:36:45;;;;;;;32.30;27.15;;;22.30;99.90;;;;;;5108269;28;20633;-38
2022/08/18 05:39:20;;;;;;;31.67;26.60;;;22.30;99.90;;;;;;5117752;27;20262;-38
2022/08/18 05:41:49;;;;;;;30.27;25.85;;;22.30;99.90;;;;;;5124357;27;20206;-39
2022/08/18 05:44:27;;;;;;;28.85;25.15;;;22.30;99.90;;;;;;5116442;27;20281;-38
2022/08/18 05:47:01;;;;;;;31.55;26.05;;;22.30;99.90;;;;;;5132884;27;20210;-38
2022/08/18 05:49:34;;;;;;;31.27;26.42;;;22.30;99.90;;;;;;5132547;27;20205;-38
2022/08/18 05:52:29;;;;;;;32.60;26.27;;;22.30;99.90;;;;;;5114310;27;20279;-39
2022/08/18 05:58:04;;;;;;;35.05;27.17;;;22.30;99.90;;;;;;5131383;27;20282;-38
2022/08/18 06:00:37;;;;;;;34.55;28.35;;;22.40;99.90;;;;;;5132944;27;20266;-39
2022/08/18 06:03:25;;;;;;;37.08;30.73;;;22.40;99.90;;;;;;5124631;27;20205;-39
2022/08/18 06:06:04;;;;;;;37.20;30.15;;;22.40;99.90;;;;;;5125098;27;20206;-39
2022/08/18 06:08:40;;;;;;;40.30;32.45;;;22.40;99.90;;;;;;5111934;28;20210;-39
2022/08/18 06:11:12;;;;;;;39.92;32.10;;;22.40;99.90;;;;;;5111517;28;20642;-39
2022/08/18 06:13:49;;;;;;;43.25;32.45;;;22.40;99.90;;;;;;5111505;28;20554;-39
2022/08/18 06:16:28;;;;;;;45.15;32.92;;;22.40;99.90;;;;;;5123809;27;20213;-38
2022/08/18 06:19:24;;;;;;;42.88;33.20;;;22.40;99.90;;;;;;5121900;27;20228;-39
2022/08/18 06:21:59;;;;;;;40.75;32.08;;;22.40;99.90;;;;;;5094664;27;20567;-39
2022/08/18 06:25:04;;;;;;;43.83;32.38;;;22.40;99.90;;;;;;5132384;27;20577;-38
2022/08/18 06:27:54;;;;;;;46.60;33.55;;;22.40;99.90;;;;;;5117966;27;20281;-38
2022/08/18 06:30:45;;;;;;;37.53;30.83;;;22.40;99.90;;;;;;5152595;27;20209;-38
2022/08/18 06:33:20;;;;;;;38.72;30.40;;;22.40;99.90;;;;;;5128640;27;20275;-38
2022/08/18 06:35:59;;;;;;;39.58;30.73;;;22.40;99.90;;;;;;5120509;27;20273;-43
2022/08/18 06:38:42;;;;;;;40.35;31.88;;;22.40;99.90;;;;;;5116809;27;20198;-43
2022/08/18 06:41:20;;;;;;;44.47;32.17;;;22.50;99.90;;;;;;5093146;28;20218;-43
2022/08/18 06:44:10;;;;;;;36.88;30.50;;;22.50;99.90;;;;;;5110634;28;20554;-43
2022/08/18 06:47:10;;;;;;;34.47;27.90;;;22.50;99.90;;;;;;5111902;27;20618;-43
2022/08/18 06:50:04;;;;;;;32.75;26.08;;;22.50;99.90;;;;;;5074312;27;20669;-44
2022/08/18 06:52:49;;;;;;;32.17;25.75;;;22.50;99.90;;;;;;5117322;27;20540;-43
2022/08/18 06:55:30;;;;;;;36.50;27.80;;;22.50;99.90;;;;;;5131700;27;20284;-42
2022/08/18 06:58:05;;;;;;;34.08;26.92;;;22.50;99.90;;;;;;5131332;27;20353;-44
2022/08/18 07:00:35;;;;;;;30.77;25.58;;;22.60;99.90;;;;;;5134276;27;20539;-49
2022/08/18 07:03:16;;;;;;;28.65;23.40;;;22.60;99.90;;;;;;5117736;27;20209;-43
2022/08/18 07:05:58;;;;;;;31.35;24.15;;;22.60;99.90;;;;;;5131458;27;20224;-44
2022/08/18 07:08:44;;;;;;;29.92;23.77;;;22.70;99.90;;;;;;5110863;28;20263;-44
2022/08/18 07:11:23;;;;;;;28.05;23.20;;;22.70;99.90;;;;;;5110314;28;20201;-44
2022/08/18 07:13:57;;;;;;;28.15;23.13;;;22.70;99.90;;;;;;5110173;28;20713;-43
2022/08/18 07:16:45;;;;;;;31.88;24.00;;;22.80;99.90;;;;;;5110946;28;20199;-43
2022/08/18 07:19:32;;;;;;;33.88;24.27;;;22.80;99.90;;;;;;5110863;28;20325;-43
2022/08/18 07:22:07;;;;;;;37.42;24.35;;;22.80;99.90;;;;;;5110348;28;20213;-44
2022/08/18 07:24:57;;;;;;;29.63;23.63;;;22.90;99.90;;;;;;5093464;28;20206;-43
2022/08/18 07:28:01;;;;;;;30.63;22.92;;;22.90;99.90;;;;;;5132874;27;20280;-44
2022/08/18 07:30:38;;;;;;;28.38;21.52;;;23.00;99.90;;;;;;5132856;27;20209;-43
2022/08/18 07:33:25;;;;;;;25.77;22.00;;;23.00;99.90;;;;;;5154926;27;20220;-44
2022/08/18 07:36:04;;;;;;;24.48;20.45;;;23.10;99.90;;;;;;5153845;27;20287;-44
2022/08/18 07:38:44;;;;;;;26.00;20.65;;;23.20;99.90;;;;;;5152592;27;20568;-42
2022/08/18 07:41:19;;;;;;;26.10;20.98;;;23.30;99.90;;;;;;5130323;27;20732;-40
2022/08/18 07:44:04;;;;;;;27.17;21.38;;;23.40;99.90;;;;;;5120945;27;20281;-41
2022/08/18 07:46:57;;;;;;;25.45;19.13;;;23.40;99.90;;;;;;5110236;28;20201;-41
2022/08/18 07:49:36;;;;;;;22.00;18.25;;;23.40;99.90;;;;;;5102248;27;20258;-41
2022/08/18 07:52:38;;;;;;;21.70;17.88;;;23.50;99.90;;;;;;5130466;27;20213;-41
2022/08/18 07:55:37;;;;;;;24.77;18.73;;;23.50;99.90;;;;;;5112958;27;20210;-43
2022/08/18 07:58:42;;;;;;;20.83;18.58;;;23.60;99.90;;;;;;5110825;27;20234;-42
2022/08/18 08:01:39;;;;;;;23.65;19.23;;;23.70;99.90;;;;;;5121781;27;20201;-42
2022/08/18 08:04:27;;;;;;;19.30;15.80;;;23.80;99.90;;;;;;5111934;27;20220;-42
2022/08/18 08:07:08;;;;;;;23.67;19.10;;;23.80;99.90;;;;;;5129553;27;20237;-42
2022/08/18 08:10:12;;;;;;;17.95;16.05;;;23.90;99.90;;;;;;5130141;27;20219;-43
2022/08/18 08:13:02;;;;;;;18.17;16.27;;;23.90;99.90;;;;;;5128725;27;20309;-43
2022/08/18 08:15:59;;;;;;;19.02;16.48;;;23.90;99.90;;;;;;5097844;28;20568;-43
2022/08/18 08:18:41;;;;;;;18.88;14.40;;;23.90;99.90;;;;;;5123485;27;20252;-38
2022/08/18 08:21:16;;;;;;;15.95;14.30;;;23.90;99.90;;;;;;5129804;27;20283;-37
2022/08/18 08:23:56;;;;;;;16.00;14.13;;;23.90;99.90;;;;;;5129481;27;20212;-38
2022/08/18 08:26:32;;;;;;;15.45;13.82;;;23.90;99.90;;;;;;5094061;27;20205;-38
2022/08/18 08:29:11;;;;;;;20.55;17.55;;;23.90;99.90;;;;;;5150146;27;20242;-37
2022/08/18 08:31:56;;;;;;;24.55;20.50;;;23.90;99.90;;;;;;5136979;27;20571;-38
2022/08/18 08:34:45;;;;;;;25.55;19.58;;;23.90;99.90;;;;;;5114604;27;20261;-37
2022/08/18 08:37:22;;;;;;;21.60;18.48;;;23.90;99.90;;;;;;5129530;27;20270;-37
2022/08/18 08:40:07;;;;;;;23.83;19.73;;;23.90;99.90;;;;;;5129342;27;20678;-37
2022/08/18 08:42:59;;;;;;;24.95;21.95;;;23.90;99.90;;;;;;5128398;27;20192;-37
2022/08/18 08:45:35;;;;;;;21.30;18.77;;;23.90;99.90;;;;;;5129553;27;20217;-37
2022/08/18 08:48:17;;;;;;;21.70;18.05;;;23.80;99.90;;;;;;5109325;27;20551;-38
2022/08/18 08:51:15;;;;;;;16.60;14.23;;;23.80;99.90;;;;;;5091195;28;20286;-38
2022/08/18 08:53:50;;;;;;;15.32;13.48;;;23.80;99.90;;;;;;5129207;27;20235;-38
2022/08/18 08:56:20;;;;;;;13.38;12.00;;;23.80;99.90;;;;;;5128772;27;20570;-38
2022/08/18 08:58:49;;;;;;;15.15;12.38;;;23.80;99.90;;;;;;5128747;27;20332;-42
2022/08/18 09:01:42;;;;;;;11.57;10.40;;;23.80;99.90;;;;;;5129192;27;20228;-42
2022/08/18 09:04:40;;;;;;;10.77;9.68;;;23.80;99.90;;;;;;5129224;27;20198;-42
2022/08/18 09:07:33;;;;;;;14.90;11.35;;;23.70;99.90;;;;;;5118697;27;20201;-43
2022/08/18 09:10:17;;;;;;;12.50;10.32;;;23.70;99.90;;;;;;5128003;28;20615;-42
2022/08/18 09:12:58;;;;;;;19.50;14.07;;;23.80;99.90;;;;;;5110300;27;20621;-43
2022/08/18 09:15:34;;;;;;;12.98;11.65;;;23.90;99.90;;;;;;5136469;27;20193;-44
2022/08/18 09:18:35;;;;;;;12.30;11.00;;;23.90;99.90;;;;;;5135730;27;20643;-44
2022/08/18 09:21:17;;;;;;;19.08;13.55;;;24.00;99.90;;;;;;5135631;27;20245;-43
2022/08/18 09:23:56;;;;;;;14.95;12.40;;;24.00;99.90;;;;;;5119710;27;20745;-42
2022/08/18 09:26:42;;;;;;;11.52;10.40;;;24.00;99.90;;;;;;5128490;27;20282;-44
2022/08/18 09:29:23;;;;;;;12.65;11.43;;;24.10;99.90;;;;;;5114895;28;20225;-45
2022/08/18 09:32:18;;;;;;;13.70;11.57;;;24.10;99.90;;;;;;5115368;28;20644;-44
2022/08/18 09:34:57;;;;;;;12.55;9.20;;;24.10;99.90;;;;;;5115288;28;20206;-44
2022/08/18 09:37:32;;;;;;;12.77;11.48;;;24.20;99.90;;;;;;5114919;28;20255;-43
2022/08/18 09:44:08;;;;;;;11.27;9.48;;;24.30;99.90;;;;;;5122249;27;20606;-41
2022/08/18 09:46:47;;;;;;;15.90;12.55;;;24.30;99.90;;;;;;5115686;28;20194;-43
2022/08/18 09:49:26;;;;;;;17.08;13.38;;;24.40;99.90;;;;;;5115026;28;20198;-43
2022/08/18 09:51:58;;;;;;;11.63;10.13;;;24.50;99.90;;;;;;5129835;27;20219;-42
2022/08/18 09:54:30;;;;;;;12.55;10.52;;;24.50;99.90;;;;;;5117521;27;20702;-41
2022/08/18 09:57:17;;;;;;;11.73;10.13;;;24.60;99.90;;;;;;5134085;27;20209;-44
2022/08/18 09:59:46;;;;;;;14.00;12.57;;;24.70;99.90;;;;;;5126658;27;20213;-42
2022/08/18 10:02:26;;;;;;;12.43;10.50;;;24.80;99.90;;;;;;5128143;27;20312;-44
2022/08/18 10:05:28;;;;;;;10.50;9.45;;;24.80;99.90;;;;;;5135550;27;20225;-44
2022/08/18 10:08:04;;;;;;;10.25;9.27;;;24.80;99.90;;;;;;5116765;27;20578;-44
2022/08/18 10:11:05;;;;;;;10.35;9.32;;;24.80;99.90;;;;;;5124949;27;20217;-43
2022/08/18 10:13:39;;;;;;;9.48;8.40;;;24.90;99.90;;;;;;5097491;28;20266;-43
2022/08/18 10:16:20;;;;;;;8.73;7.82;;;24.90;99.90;;;;;;5098038;27;20198;-38
2022/08/18 10:19:28;;;;;;;10.57;9.02;;;25.00;99.90;;;;;;5132486;27;20244;-37
2022/08/18 10:22:09;;;;;;;8.82;7.93;;;25.00;99.90;;;;;;5031307;28;20292;-38
2022/08/18 10:24:58;;;;;;;9.80;7.75;;;25.00;99.90;;;;;;5123565;27;20194;-38
2022/08/18 10:27:50;;;;;;;8.45;7.65;;;25.10;99.90;;;;;;5140885;27;20208;-38
2022/08/18 10:30:45;;;;;;;8.65;7.80;;;25.10;99.90;;;;;;5144383;27;20241;-38
2022/08/18 10:34:04;;;;;;;9.63;8.65;;;25.20;99.90;;;;;;5116515;27;20320;-38
2022/08/18 10:36:53;;;;;;;11.00;9.70;;;25.30;99.90;;;;;;5132009;27;20221;-38
2022/08/18 10:39:37;;;;;;;11.05;8.68;;;25.30;99.90;;;;;;5109839;28;20676;-37
2022/08/18 10:42:27;;;;;;;9.00;8.13;;;25.30;99.90;;;;;;5110878;28;20733;-38
2022/08/18 10:45:38;;;;;;;8.50;7.70;;;25.30;99.90;;;;;;5111008;28;20255;-38
2022/08/18 10:48:12;;;;;;;8.40;7.25;;;25.30;99.90;;;;;;5107376;27;20733;-38
2022/08/18 10:51:10;;;;;;;8.75;7.82;;;25.30;99.90;;;;;;5118764;27;20672;-38
2022/08/18 10:53:53;;;;;;;7.13;6.53;;;25.30;99.20;;;;;;5131006;27;20733;-44
2022/08/18 10:56:28;;;;;;;9.60;8.68;;;25.30;99.50;;;;;;5130875;27;20220;-43
2022/08/18 10:59:19;;;;;;;7.80;7.10;;;25.40;99.40;;;;;;5130964;27;20669;-43
2022/08/18 11:02:36;;;;;;;8.10;7.07;;;25.30;99.60;;;;;;5097179;27;20236;-43
2022/08/18 11:05:08;;;;;;;7.90;7.20;;;25.40;99.80;;;;;;5130363;27;20241;-44
2022/08/18 11:07:41;;;;;;;7.60;6.63;;;25.40;99.80;;;;;;5123754;27;20255;-42
2022/08/18 11:10:22;;;;;;;8.23;6.70;;;25.60;99.80;;;;;;5100492;27;20189;-43
2022/08/18 11:13:09;;;;;;;9.50;6.20;;;25.60;99.60;;;;;;5130078;27;20452;-43
2022/08/18 11:16:17;;;;;;;7.30;5.68;;;25.60;99.60;;;;;;5130869;27;20563;-43
2022/08/18 11:18:57;;;;;;;10.18;5.72;;;25.60;99.50;;;;;;5131521;27;20232;-43
2022/08/18 11:21:56;;;;;;;6.30;5.80;;;25.70;99.40;;;;;;5130167;27;20221;-43
2022/08/18 11:24:30;;;;;;;6.60;6.00;;;25.70;99.60;;;;;;5124149;27;20241;-44
2022/08/18 11:27:16;;;;;;;6.15;5.55;;;25.70;99.50;;;;;;5115850;27;20197;-43
2022/08/18 11:29:46;;;;;;;12.00;5.97;;;25.70;99.60;;;;;;5137724;27;20225;-43
2022/08/18 11:32:29;;;;;;;6.50;5.50;;;25.70;99.60;;;;;;5130316;27;20204;-43
2022/08/18 11:35:01;;;;;;;6.25;5.65;;;25.80;99.20;;;;;;5130383;27;20198;-43
2022/08/18 11:37:40;;;;;;;6.65;5.35;;;25.80;98.90;;;;;;5130133;27;20209;-43
2022/08/18 11:40:19;;;;;;;10.15;5.50;;;25.90;98.80;;;;;;5117545;27;20198;-43
2022/08/18 11:43:16;;;;;;;6.38;5.28;;;25.80;98.70;;;;;;5093818;28;20214;-43
2022/08/18 11:45:58;;;;;;;5.80;5.20;;;25.80;98.80;;;;;;5109858;28;20293;-42
2022/08/18 11:48:35;;;;;;;5.35;4.90;;;25.90;98.80;;;;;;5109799;28;20254;-45
2022/08/18 11:51:23;;;;;;;6.28;5.38;;;25.90;99.00;;;;;;5109958;28;20205;-42
2022/08/18 11:54:01;;;;;;;6.45;5.65;;;26.00;98.80;;;;;;5127799;27;20313;-42
2022/08/18 11:56:35;;;;;;;7.55;5.07;;;26.00;99.00;;;;;;5110706;27;20217;-42
2022/08/18 11:59:06;;;;;;;5.78;5.03;;;26.10;99.20;;;;;;5100410;28;20237;-42
2022/08/18 12:01:43;;;;;;;5.82;5.22;;;26.10;99.30;;;;;;5109461;28;20194;-44
2022/08/18 12:04:37;;;;;;;13.02;6.13;;;26.20;99.40;;;;;;5109663;28;20209;-43
2022/08/18 12:07:14;;;;;;;6.63;5.93;;;26.20;99.30;;;;;;5109497;28;20424;-42
2022/08/18 12:10:06;;;;;;;6.78;4.97;;;26.40;99.20;;;;;;5126697;27;20654;-42
2022/08/18 12:12:51;;;;;;;5.45;4.90;;;26.40;99.30;;;;;;5128511;27;20197;-41
2022/08/18 12:15:31;;;;;;;8.38;5.50;;;26.50;99.40;;;;;;5106734;28;20210;-44
2022/08/18 12:18:16;;;;;;;6.20;5.43;;;26.60;99.40;;;;;;5109467;28;20423;-42
2022/08/18 12:20:56;;;;;;;6.03;5.10;;;26.70;99.30;;;;;;5092743;28;20205;-42
2022/08/18 12:23:25;;;;;;;5.53;5.13;;;26.70;99.20;;;;;;5108838;28;20259;-43
2022/08/18 12:25:54;;;;;;;6.45;5.95;;;26.80;98.00;;;;;;5090649;28;20228;-43
2022/08/18 12:28:25;;;;;;;6.72;6.13;;;26.80;97.80;;;;;;5120838;27;20201;-43
2022/08/18 12:30:54;;;;;;;6.20;5.57;;;26.70;97.50;;;;;;5096772;27;20688;-43
2022/08/18 12:33:26;;;;;;;6.10;5.60;;;26.70;97.90;;;;;;5122919;27;20617;-41
2022/08/18 12:36:13;;;;;;;5.90;5.40;;;26.70;97.90;;;;;;5129476;27;20225;-45
2022/08/18 12:38:45;;;;;;;7.50;5.28;;;26.70;98.10;;;;;;5128856;27;20193;-44
2022/08/18 12:41:23;;;;;;;6.78;6.00;;;26.70;97.90;;;;;;5120632;27;20602;-43
2022/08/18 12:43:52;;;;;;;6.13;5.63;;;26.80;97.70;;;;;;5108432;28;20194;-45
2022/08/18 12:46:25;;;;;;;9.13;5.82;;;26.80;98.00;;;;;;5109192;27;20210;-44
2022/08/18 12:48:55;;;;;;;6.53;6.03;;;26.80;98.10;;;;;;5109177;27;20206;-42
2022/08/18 12:51:23;;;;;;;7.18;6.57;;;26.80;98.00;;;;;;5129124;27;20218;-43
2022/08/18 12:53:56;;;;;;;9.57;7.40;;;26.80;98.10;;;;;;5111949;27;20645;-43
2022/08/18 12:56:50;;;;;;;7.18;6.53;;;26.80;98.00;;;;;;5128968;27;20204;-43
2022/08/18 12:59:20;;;;;;;7.05;6.35;;;26.80;97.70;;;;;;5128811;27;20233;-42
2022/08/18 13:01:50;;;;;;;6.82;6.28;;;26.90;98.10;;;;;;5129473;27;20212;-43
2022/08/18 13:04:32;;;;;;;7.22;6.63;;;26.90;98.10;;;;;;5128639;27;20621;-43
2022/08/18 13:07:00;;;;;;;7.53;6.82;;;26.90;98.20;;;;;;5117823;27;20767;-44
2022/08/18 13:09:34;;;;;;;8.32;7.40;;;27.00;98.30;;;;;;5119822;27;20205;-43
2022/08/18 13:12:21;;;;;;;8.63;7.72;;;27.00;98.40;;;;;;5112767;28;20625;-37
2022/08/18 13:14:53;;;;;;;8.48;7.68;;;27.10;98.50;;;;;;5129053;28;20228;-37
2022/08/18 13:17:21;;;;;;;9.40;7.20;;;27.20;98.60;;;;;;5128704;28;20208;-37
2022/08/18 13:20:08;;;;;;;8.00;7.00;;;27.20;98.70;;;;;;5111142;28;20201;-37
2022/08/18 13:22:42;;;;;;;8.15;7.45;;;27.30;98.70;;;;;;5090751;28;20206;-40
2022/08/18 13:25:15;;;;;;;8.23;7.53;;;27.40;98.70;;;;;;5111317;28;20284;-37
2022/08/18 13:28:05;;;;;;;7.55;6.82;;;27.40;98.60;;;;;;5140574;27;20945;-38
2022/08/18 13:30:32;;;;;;;8.27;7.47;;;27.50;98.70;;;;;;5131137;27;20217;-37
2022/08/18 13:33:02;;;;;;;9.68;8.77;;;27.50;98.60;;;;;;5149412;27;20620;-37
2022/08/18 13:35:52;;;;;;;9.70;8.85;;;27.50;98.10;;;;;;5149301;27;20197;-38
2022/08/18 13:38:22;;;;;;;9.70;8.90;;;27.50;98.20;;;;;;5123282;27;20681;-40
2022/08/18 13:41:03;;;;;;;10.25;9.05;;;27.50;97.90;;;;;;5115403;28;20220;-39
2022/08/18 13:43:43;;;;;;;10.45;9.52;;;27.50;98.20;;;;;;5108288;28;20201;-39
2022/08/18 13:46:18;;;;;;;10.45;9.50;;;27.50;98.30;;;;;;5122821;28;20221;-39
2022/08/18 13:48:51;;;;;;;12.77;11.63;;;27.50;98.10;;;;;;5109003;28;20364;-39
2022/08/18 13:51:22;;;;;;;13.45;12.15;;;27.50;98.20;;;;;;5108021;28;20724;-40